Time;durP1;ratioP1;P1;durP2;ratioP2;P2;SDS_P1;SDS_P2;PMS_P1;PMS_P2;Temp;Humidity;BMP_temperature;BMP_pressure;BME280_temperature;BME280_humidity;BME280_pressure;Samples;Min_cycle;Max_cycle;Signal;HPM_P1;HPM_P2
2022/07/18 00:00:49;;;;;;;;;;;;;;;10.95;100.00;99904.79;1695847;84;20121;-71
2022/07/18 00:03:16;;;;;;;;;;;;;;;10.95;100.00;99905.35;1695872;84;20093;-71
2022/07/18 00:05:42;;;;;;;;;;;;;;;10.92;100.00;99899.91;1696131;84;20121;-71
2022/07/18 00:08:09;;;;;;;;;;;;;;;10.89;100.00;99897.78;1695826;84;22026;-71
2022/07/18 00:10:35;;;;;;;;;;;;;;;10.86;100.00;99897.03;1695733;84;20148;-71
2022/07/18 00:13:03;;;;;;;;;;;;;;;10.85;100.00;99892.66;1706037;83;20085;-71
2022/07/18 00:15:29;;;;;;;;;;;;;;;10.84;100.00;99898.71;1725939;83;20454;-71
2022/07/18 00:17:55;;;;;;;;;;;;;;;10.83;100.00;99902.58;1728433;83;20122;-71
2022/07/18 00:20:22;;;;;;;;;;;;;;;10.82;100.00;99898.20;1728086;83;21106;-71
2022/07/18 00:22:50;;;;;;;;;;;;;;;10.82;100.00;99896.02;1728090;83;20099;-71
2022/07/18 00:25:16;;;;;;;;;;;;;;;10.80;100.00;99899.64;1728479;83;20143;-71
2022/07/18 00:27:42;;;;;;;;;;;;;;;10.80;100.00;99892.77;1728088;83;20252;-71
2022/07/18 00:30:11;;;;;;;;;;;;;;;10.80;100.00;99895.52;1728223;83;20441;-71
2022/07/18 00:32:37;;;;;;;;;;;;;;;10.77;100.00;99900.25;1728145;83;21098;-71
2022/07/18 00:35:04;;;;;;;;;;;;;;;10.73;100.00;99904.17;1728339;83;20107;-71
2022/07/18 00:37:30;;;;;;;;;;;;;;;10.72;100.00;99905.30;1728078;82;20139;-71
2022/07/18 00:39:57;;;;;;;;;;;;;;;10.72;100.00;99903.11;1728046;83;20179;-71
2022/07/18 00:42:24;;;;;;;;;;;;;;;10.73;100.00;99912.97;1728043;83;20430;-71
2022/07/18 00:44:54;;;;;;;;;;;;;;;10.74;100.00;99912.66;1728105;83;21091;-71
2022/07/18 00:47:21;;;;;;;;;;;;;;;10.75;100.00;99911.55;1728048;83;20071;-71
2022/07/18 00:49:47;;;;;;;;;;;;;;;10.76;100.00;99912.36;1728147;83;20095;-71
2022/07/18 00:52:14;;;;;;;;;;;;;;;10.76;100.00;99906.30;1728094;83;20465;-71
2022/07/18 00:54:40;;;;;;;;;;;;;;;10.76;100.00;99913.73;1727917;83;20095;-71
2022/07/18 00:57:07;;;;;;;;;;;;;;;10.74;100.00;99919.53;1728065;83;22013;-71
2022/07/18 01:02:19;;;;;;;;;;;;;;;10.69;100.00;99911.96;1728188;83;20117;-71
2022/07/18 01:04:46;;;;;;;;;;;;;;;10.67;100.00;99912.83;1728050;83;20146;-70
2022/07/18 01:07:12;;;;;;;;;;;;;;;10.67;100.00;99916.39;1707496;83;20095;-70
2022/07/18 01:09:39;;;;;;;;;;;;;;;10.67;100.00;99917.76;1728169;83;21767;-70
2022/07/18 01:12:06;;;;;;;;;;;;;;;10.66;100.00;99917.50;1728163;83;20126;-71
2022/07/18 01:14:32;;;;;;;;;;;;;;;10.66;100.00;99918.88;1725975;83;20147;-71
2022/07/18 01:16:59;;;;;;;;;;;;;;;10.63;100.00;99919.49;1716522;83;20119;-71
2022/07/18 01:19:25;;;;;;;;;;;;;;;10.63;100.00;99918.68;1703416;83;20177;-71
2022/07/18 01:21:52;;;;;;;;;;;;;;;10.62;100.00;99920.61;1695726;84;21130;-71
2022/07/18 01:24:20;;;;;;;;;;;;;;;10.61;100.00;99918.17;1695762;84;20085;-71
2022/07/18 01:26:46;;;;;;;;;;;;;;;10.61;100.00;99923.11;1696093;84;20149;-71
2022/07/18 01:29:14;;;;;;;;;;;;;;;10.62;100.00;99923.91;1695781;84;39014;-71
2022/07/18 01:31:40;;;;;;;;;;;;;;;10.61;100.00;99920.92;1695762;84;20085;-71
2022/07/18 01:34:07;;;;;;;;;;;;;;;10.61;100.00;99921.73;1695763;84;21267;-71
2022/07/18 01:36:33;;;;;;;;;;;;;;;10.60;100.00;99925.59;1695663;83;20144;-71
2022/07/18 01:38:59;;;;;;;;;;;;;;;10.58;100.00;99925.91;1695698;84;20097;-71
2022/07/18 01:41:26;;;;;;;;;;;;;;;10.57;100.00;99925.65;1695684;84;20073;-71
2022/07/18 01:43:52;;;;;;;;;;;;;;;10.55;100.00;99927.08;1695807;84;20097;-71
2022/07/18 01:46:19;;;;;;;;;;;;;;;10.55;100.00;99924.33;1695708;84;21116;-71
2022/07/18 01:48:45;;;;;;;;;;;;;;;10.55;100.00;99929.26;1696015;84;20137;-71
2022/07/18 01:51:11;;;;;;;;;;;;;;;10.68;100.00;99932.30;1695733;84;20148;-72
2022/07/18 01:53:39;;;;;;;;;;;;;;;10.78;100.00;99927.97;1695745;84;20109;-71
2022/07/18 01:56:06;;;;;;;;;;;;;;;10.79;100.00;99930.41;1695682;84;20113;-71
2022/07/18 01:58:32;;;;;;;;;;;;;;;10.83;100.00;99927.86;1695724;84;21771;-72
2022/07/18 02:00:59;;;;;;;;;;;;;;;10.82;100.00;99930.35;1695829;84;20109;-72
2022/07/18 02:03:26;;;;;;;;;;;;;;;10.79;100.00;99924.10;1695678;84;20113;-72
2022/07/18 02:05:52;;;;;;;;;;;;;;;10.81;100.00;99935.59;1695721;84;20097;-72
2022/07/18 02:08:19;;;;;;;;;;;;;;;10.81;100.00;99938.34;1695815;84;20121;-72
2022/07/18 02:10:46;;;;;;;;;;;;;;;10.79;100.00;99935.90;1695767;84;21633;-72
2022/07/18 02:13:12;;;;;;;;;;;;;;;10.80;100.00;99940.83;1695668;84;20271;-72
2022/07/18 02:15:38;;;;;;;;;;;;;;;10.79;100.00;99940.58;1695724;84;20089;-72
2022/07/18 02:18:05;;;;;;;;;;;;;;;10.85;100.00;99940.72;1695544;84;20144;-72
2022/07/18 02:20:31;;;;;;;;;;;;;;;10.86;100.00;99940.97;1695735;84;20077;-72
2022/07/18 02:22:58;;;;;;;;;;;;;;;10.85;100.00;99942.09;1695810;84;21111;-72
2022/07/18 02:25:24;;;;;;;;;;;;;;;10.82;100.00;99938.59;1695713;84;20097;-71
2022/07/18 02:27:50;;;;;;;;;;;;;;;10.80;100.00;99943.02;1695622;84;20432;-72
2022/07/18 02:30:16;;;;;;;;;;;;;;;10.85;100.00;99943.47;1695698;84;20122;-72
2022/07/18 02:32:43;;;;;;;;;;;;;;;10.92;100.00;99950.73;1707764;83;20414;-72
2022/07/18 02:35:09;;;;;;;;;;;;;;;10.98;100.00;99949.47;1709076;83;21134;-75
2022/07/18 02:37:37;;;;;;;;;;;;;;;10.94;100.00;99948.48;1713781;82;20089;-72
2022/07/18 02:40:07;;;;;;;;;;;;;;;10.84;100.00;99951.45;1695701;84;20465;-75
2022/07/18 02:42:34;;;;;;;;;;;;;;;10.75;100.00;99952.73;1700128;83;20421;-75
2022/07/18 02:45:01;;;;;;;;;;;;;;;10.68;100.00;99957.02;1727880;83;20119;-74
2022/07/18 02:47:27;;;;;;;;;;;;;;;10.61;100.00;99949.19;1728305;83;21054;-74
2022/07/18 02:49:54;;;;;;;;;;;;;;;10.57;100.00;99951.73;1727889;83;20123;-73
2022/07/18 02:52:21;;;;;;;;;;;;;;;10.55;100.00;99953.97;1726580;83;20083;-74
2022/07/18 02:54:47;;;;;;;;;;;;;;;10.57;100.00;99959.97;1726923;83;20745;-75
2022/07/18 02:57:14;;;;;;;;;;;;;;;10.58;100.00;99956.66;1727077;82;20190;-75
2022/07/18 02:59:40;;;;;;;;;;;;;;;10.58;100.00;99960.22;1727817;83;21113;-75
2022/07/18 03:02:08;;;;;;;;;;;;;;;10.59;100.00;99963.78;1727691;82;20135;-75
2022/07/18 03:04:34;;;;;;;;;;;;;;;10.59;100.00;99974.20;1728283;83;20111;-75
2022/07/18 03:07:00;;;;;;;;;;;;;;;10.59;100.00;99974.76;1728047;83;20414;-75
2022/07/18 03:09:27;;;;;;;;;;;;;;;10.61;100.00;99979.95;1728298;83;20123;-74
2022/07/18 03:11:55;;;;;;;;;;;;;;;10.65;100.00;99980.96;1727998;82;21044;-75
2022/07/18 03:14:21;;;;;;;;;;;;;;;10.67;100.00;99985.03;1727740;83;20123;-74
2022/07/18 03:16:48;;;;;;;;;;;;;;;10.70;100.00;99984.98;1728193;83;20253;-74
2022/07/18 03:19:16;;;;;;;;;;;;;;;10.73;100.00;99989.30;1728054;82;20134;-74
2022/07/18 03:21:42;;;;;;;;;;;;;;;10.76;100.00;99989.25;1728082;83;20115;-73
2022/07/18 03:24:10;;;;;;;;;;;;;;;10.78;100.00;99987.83;1728409;82;22163;-74
2022/07/18 03:26:37;;;;;;;;;;;;;;;10.79;100.00;99985.33;1727921;83;20107;-75
2022/07/18 03:29:04;;;;;;;;;;;;;;;10.82;100.00;99992.95;1728008;83;20087;-74
2022/07/18 03:31:30;;;;;;;;;;;;;;;10.85;100.00;99989.59;1728163;83;20460;-73
2022/07/18 03:33:56;;;;;;;;;;;;;;;10.89;100.00;99989.80;1728039;83;20079;-73
2022/07/18 03:36:22;;;;;;;;;;;;;;;10.94;100.00;99994.37;1729258;82;21762;-74
2022/07/18 03:38:49;;;;;;;;;;;;;;;10.99;100.00;99991.48;1754997;82;20122;-71
2022/07/18 03:41:16;;;;;;;;;;;;;;;11.04;100.00;99988.63;1754928;82;20138;-71
2022/07/18 03:43:43;;;;;;;;;;;;;;;11.08;100.00;99986.89;1755171;82;20082;-72
2022/07/18 03:46:10;;;;;;;;;;;;;;;11.13;100.00;99986.22;1755199;81;20094;-72
2022/07/18 03:48:37;;;;;;;;;;;;;;;11.18;100.00;99985.30;1755149;81;21119;-71
2022/07/18 03:51:03;;;;;;;;;;;;;;;11.25;100.00;99979.63;1754968;81;20118;-72
2022/07/18 03:53:30;;;;;;;;;;;;;;;11.32;100.00;99986.08;1754948;81;20156;-74
2022/07/18 03:55:57;;;;;;;;;;;;;;;11.40;100.00;99979.84;1754977;82;20118;-74
2022/07/18 03:58:23;;;;;;;;;;;;;;;11.48;100.00;99983.80;1755113;82;20090;-74
2022/07/18 04:00:50;;;;;;;;;;;;;;;11.55;100.00;99982.80;1755018;82;21004;-74
2022/07/18 04:03:17;;;;;;;;;;;;;;;11.64;100.00;99985.59;1754796;82;20142;-73
2022/07/18 04:05:46;;;;;;;;;;;;;;;11.70;100.00;99985.72;1755014;82;20126;-73
2022/07/18 04:08:12;;;;;;;;;;;;;;;11.76;100.00;99983.91;1755274;81;20118;-74
2022/07/18 04:10:39;;;;;;;;;;;;;;;11.82;100.00;99982.69;1754792;82;20106;-74
2022/07/18 04:13:06;;;;;;;;;;;;;;;11.92;100.00;99987.69;1754968;82;21724;-75
2022/07/18 04:15:33;;;;;;;;;;;;;;;11.99;100.00;99990.80;1754929;82;20444;-74
2022/07/18 04:17:59;;;;;;;;;;;;;;;12.04;100.00;99990.67;1754963;82;20091;-74
2022/07/18 04:20:26;;;;;;;;;;;;;;;12.10;100.00;99992.17;1754994;81;20500;-75
2022/07/18 04:22:54;;;;;;;;;;;;;;;12.16;100.00;99992.25;1755226;82;20110;-73
2022/07/18 04:25:22;;;;;;;;;;;;;;;12.20;100.00;99987.19;1754968;81;22234;-74
2022/07/18 04:27:48;;;;;;;;;;;;;;;12.27;100.00;99990.86;1754770;81;20429;-73
2022/07/18 04:30:18;;;;;;;;;;;;;;;12.32;100.00;99983.84;1755085;81;20445;-74
2022/07/18 04:32:45;;;;;;;;;;;;;;;12.39;100.00;99985.58;1755053;82;20135;-74
2022/07/18 04:35:11;;;;;;;;;;;;;;;12.48;100.00;99996.63;1755025;81;20095;-73
2022/07/18 04:37:39;;;;;;;;;;;;;;;12.55;100.00;99992.30;1743419;82;21143;-74
2022/07/18 04:40:06;;;;;;;;;;;;;;;12.63;100.00;99998.16;1728144;82;20115;-75
2022/07/18 04:42:32;;;;;;;;;;;;;;;12.71;100.00;100000.13;1728051;82;20095;-73
2022/07/18 04:44:59;;;;;;;;;;;;;;;12.80;100.00;99999.56;1728288;83;20164;-73
2022/07/18 04:47:26;;;;;;;;;;;;;;;12.91;100.00;99998.14;1727927;83;20106;-75
2022/07/18 04:49:54;;;;;;;;;;;;;;;13.04;100.00;99999.95;1728048;82;21235;-75
2022/07/18 04:52:21;;;;;;;;;;;;;;;13.17;100.00;99997.66;1728010;83;20430;-75
2022/07/18 04:54:47;;;;;;;;;;;;;;;13.29;100.00;100000.33;1728115;82;20083;-74
2022/07/18 04:57:15;;;;;;;;;;;;;;;13.36;100.00;99999.28;1728083;83;20107;-75
2022/07/18 04:59:42;;;;;;;;;;;;;;;13.45;100.00;99998.73;1727997;83;20143;-75
2022/07/18 05:02:09;;;;;;;;;;;;;;;13.52;100.00;100002.63;1728090;83;21119;-75
2022/07/18 05:04:36;;;;;;;;;;;;;;;13.59;100.00;99996.62;1728021;83;20156;-76
2022/07/18 05:07:03;;;;;;;;;;;;;;;13.65;100.00;99995.89;1728087;82;20490;-75
2022/07/18 05:09:30;;;;;;;;;;;;;;;13.69;100.00;99994.91;1727735;83;20175;-75
2022/07/18 05:11:58;;;;;;;;;;;;;;;13.76;100.00;99999.38;1728008;82;20091;-75
2022/07/18 05:14:25;;;;;;;;;;;;;;;13.85;100.00;100000.18;1728137;82;21049;-75
2022/07/18 05:16:52;;;;;;;;;;;;;;;13.93;100.00;100003.23;1727755;82;20214;-75
2022/07/18 05:19:19;;;;;;;;;;;;;;;14.03;100.00;100001.51;1727519;83;20118;-75
2022/07/18 05:21:45;;;;;;;;;;;;;;;14.12;100.00;100006.45;1728145;82;20125;-74
2022/07/18 05:24:13;;;;;;;;;;;;;;;14.24;100.00;100008.53;1727867;83;20442;-74
2022/07/18 05:26:39;;;;;;;;;;;;;;;14.33;100.00;100001.03;1728024;83;21115;-74
2022/07/18 05:29:06;;;;;;;;;;;;;;;14.38;100.00;100008.58;1728195;83;20207;-74
2022/07/18 05:31:32;;;;;;;;;;;;;;;14.44;100.00;100004.50;1727988;83;20083;-75
2022/07/18 05:34:00;;;;;;;;;;;;;;;14.52;100.00;99996.75;1727711;83;20627;-74
2022/07/18 05:36:26;;;;;;;;;;;;;;;14.63;100.00;100004.10;1728071;83;20158;-76
2022/07/18 05:38:52;;;;;;;;;;;;;;;14.70;100.00;100014.07;1727977;82;21119;-74
2022/07/18 05:41:19;;;;;;;;;;;;;;;14.74;100.00;100016.98;1727851;82;20095;-75
2022/07/18 05:43:46;;;;;;;;;;;;;;;14.81;100.00;100013.13;1728021;83;20500;-74
2022/07/18 05:46:12;;;;;;;;;;;;;;;14.87;100.00;100011.80;1727878;81;20123;-74
2022/07/18 05:48:39;;;;;;;;;;;;;;;14.95;100.00;100010.13;1727816;82;20103;-75
2022/07/18 05:51:06;;;;;;;;;;;;;;;14.98;100.00;100010.28;1727655;82;21138;-75
2022/07/18 05:53:33;;;;;;;;;;;;;;;15.03;100.00;100012.02;1727908;83;20115;-75
2022/07/18 05:56:00;;;;;;;;;;;;;;;15.08;100.00;100005.72;1727767;83;20083;-74
2022/07/18 05:58:27;;;;;;;;;;;;;;;15.19;100.00;100008.34;1727927;83;20405;-74
2022/07/18 06:00:53;;;;;;;;;;;;;;;15.32;100.00;100001.50;1727888;83;20079;-76
2022/07/18 06:03:20;;;;;;;;;;;;;;;15.40;100.00;100006.17;1728054;83;21116;-76
2022/07/18 06:05:46;;;;;;;;;;;;;;;15.48;100.00;100003.91;1727989;83;20106;-75
2022/07/18 06:08:13;;;;;;;;;;;;;;;15.59;100.00;100009.31;1728082;83;20118;-75
2022/07/18 06:10:39;;;;;;;;;;;;;;;15.72;99.64;100010.16;1727961;83;20142;-75
2022/07/18 06:13:05;;;;;;;;;;;;;;;15.80;99.60;100000.39;1728415;82;20087;-74
2022/07/18 06:15:32;;;;;;;;;;;;;;;15.90;97.91;100006.66;1728277;83;21146;-74
2022/07/18 06:17:58;;;;;;;;;;;;;;;16.01;98.86;99999.55;1727894;83;20087;-74
2022/07/18 06:20:24;;;;;;;;;;;;;;;16.15;96.77;99997.29;1728440;82;20095;-74
2022/07/18 06:22:51;;;;;;;;;;;;;;;16.26;96.60;99997.06;1728142;83;20414;-74
2022/07/18 06:25:18;;;;;;;;;;;;;;;16.38;94.79;99998.48;1728049;83;20119;-74
2022/07/18 06:27:44;;;;;;;;;;;;;;;16.49;93.72;99994.11;1728216;83;21423;-74
2022/07/18 06:30:12;;;;;;;;;;;;;;;16.59;92.05;100000.36;1727912;82;20118;-75
2022/07/18 06:32:38;;;;;;;;;;;;;;;16.68;91.69;100005.25;1727939;82;20091;-75
2022/07/18 06:35:23;;;;;;;;;;;;;;;16.73;91.86;99993.94;1727899;83;20083;-75
2022/07/18 06:37:49;;;;;;;;;;;;;;;16.87;91.69;100001.30;1728024;82;20434;-74
2022/07/18 06:40:16;;;;;;;;;;;;;;;17.02;89.98;99994.25;1727851;83;21169;-74
2022/07/18 06:42:42;;;;;;;;;;;;;;;17.16;90.62;99991.35;1727411;83;20734;-73
2022/07/18 06:45:09;;;;;;;;;;;;;;;17.30;89.22;99994.34;1727158;83;20414;-75
2022/07/18 06:47:36;;;;;;;;;;;;;;;17.43;88.77;99988.97;1727772;83;20126;-74
2022/07/18 06:50:02;;;;;;;;;;;;;;;17.51;85.11;99994.95;1726491;83;20171;-74
2022/07/18 06:52:29;;;;;;;;;;;;;;;17.50;83.40;99988.59;1726423;83;21135;-73
2022/07/18 06:54:56;;;;;;;;;;;;;;;17.53;85.40;99990.45;1726203;82;20303;-74
2022/07/18 06:57:22;;;;;;;;;;;;;;;17.64;84.50;99990.98;1725643;82;20182;-76
2022/07/18 06:59:49;;;;;;;;;;;;;;;17.78;83.18;99994.21;1725517;83;20237;-75
2022/07/18 07:02:16;;;;;;;;;;;;;;;17.91;81.83;99983.05;1726193;81;20170;-72
2022/07/18 07:04:43;;;;;;;;;;;;;;;18.05;81.99;99996.73;1726362;83;21765;-72
2022/07/18 07:07:10;;;;;;;;;;;;;;;18.21;80.57;99997.34;1726437;82;20159;-71
2022/07/18 07:09:37;;;;;;;;;;;;;;;18.30;79.39;99998.80;1726495;83;20154;-71
2022/07/18 07:12:06;;;;;;;;;;;;;;;18.40;77.51;99994.11;1726365;83;20469;-71
2022/07/18 07:14:32;;;;;;;;;;;;;;;18.45;76.11;99988.28;1726424;82;20178;-71
2022/07/18 07:16:59;;;;;;;;;;;;;;;18.51;75.17;99995.75;1726424;82;21133;-71
2022/07/18 07:19:27;;;;;;;;;;;;;;;18.58;75.71;99986.78;1726573;81;20166;-73
2022/07/18 07:21:53;;;;;;;;;;;;;;;18.68;73.19;99989.86;1726303;83;20182;-69
2022/07/18 07:24:20;;;;;;;;;;;;;;;18.74;74.31;99982.86;1726548;82;20175;-71
2022/07/18 07:26:47;;;;;;;;;;;;;;;18.77;73.82;99984.12;1726554;82;20194;-70
2022/07/18 07:29:14;;;;;;;;;;;;;;;18.80;74.04;99984.80;1726721;83;20832;-70
2022/07/18 07:31:42;;;;;;;;;;;;;;;18.89;73.58;99981.82;1726393;83;20143;-70
2022/07/18 07:34:09;;;;;;;;;;;;;;;18.95;71.00;99981.77;1726668;81;20126;-70
2022/07/18 07:36:36;;;;;;;;;;;;;;;19.00;71.28;99983.69;1726554;83;20166;-70
2022/07/18 07:39:02;;;;;;;;;;;;;;;19.06;70.72;99985.00;1726667;83;20175;-76
2022/07/18 07:41:29;;;;;;;;;;;;;;;19.13;70.27;99985.17;1726639;83;21590;-73
2022/07/18 07:43:55;;;;;;;;;;;;;;;19.23;70.80;99987.97;1726724;83;20123;-81
2022/07/18 07:46:22;;;;;;;;;;;;;;;19.44;66.37;99982.89;1725949;82;20130;-70
2022/07/18 07:48:48;;;;;;;;;;;;;;;19.64;69.25;99989.28;1726914;83;20170;-71
2022/07/18 07:51:15;;;;;;;;;;;;;;;19.79;67.60;99979.25;1727130;83;20083;-71
2022/07/18 07:53:42;;;;;;;;;;;;;;;19.77;65.58;99989.36;1720002;82;21229;-71
2022/07/18 07:56:08;;;;;;;;;;;;;;;19.75;66.76;99995.08;1711588;83;20556;-71
2022/07/18 07:58:36;;;;;;;;;;;;;;;19.89;66.91;99985.62;1697486;84;20472;-77
2022/07/18 08:01:03;;;;;;;;;;;;;;;20.19;68.25;99985.81;1697828;83;20152;-71
2022/07/18 08:03:30;;;;;;;;;;;;;;;20.41;65.96;99994.79;1698857;84;20085;-76
2022/07/18 08:05:57;;;;;;;;;;;;;;;20.43;64.29;99995.81;1698606;84;21217;-70
2022/07/18 08:08:25;;;;;;;;;;;;;;;20.37;64.62;99998.06;1698356;84;20085;-72
2022/07/18 08:10:53;;;;;;;;;;;;;;;20.24;66.18;99995.23;1705995;83;20095;-69
2022/07/18 08:13:20;;;;;;;;;;;;;;;20.21;64.70;100002.16;1727802;82;20127;-71
2022/07/18 08:15:47;;;;;;;;;;;;;;;20.29;63.78;99991.34;1726741;83;20118;-70
2022/07/18 08:18:15;;;;;;;;;;;;;;;20.60;64.19;99993.93;1697949;84;21217;-71
2022/07/18 08:20:41;;;;;;;;;;;;;;;20.96;61.96;99985.53;1698159;84;20097;-71
2022/07/18 08:23:10;;;;;;;;;;;;;;;21.13;59.96;99995.36;1698262;84;20121;-70
2022/07/18 08:25:38;;;;;;;;;;;;;;;21.30;58.85;99991.26;1698208;84;20206;-71
2022/07/18 08:28:06;;;;;;;;;;;;;;;21.57;58.88;99994.80;1714087;83;20126;-70
2022/07/18 08:30:33;;;;;;;;;;;;;;;21.89;57.75;99996.02;1727451;82;21123;-71
2022/07/18 08:33:01;;;;;;;;;;;;;;;22.03;57.03;99991.19;1727608;82;20115;-69
2022/07/18 08:35:28;;;;;;;;;;;;;;;22.01;55.07;99993.53;1727669;82;20130;-69
2022/07/18 08:37:54;;;;;;;;;;;;;;;21.99;54.93;99992.52;1727747;82;20577;-69
2022/07/18 08:40:21;;;;;;;;;;;;;;;21.86;55.03;99995.97;1736635;82;20108;-69
2022/07/18 08:42:50;;;;;;;;;;;;;;;21.88;54.75;100000.00;1735229;82;21132;-70
2022/07/18 08:45:16;;;;;;;;;;;;;;;21.95;52.98;100001.45;1714374;83;20169;-71
2022/07/18 08:47:44;;;;;;;;;;;;;;;22.05;52.47;100000.00;1714575;83;20141;-74
2022/07/18 08:50:11;;;;;;;;;;;;;;;22.22;53.67;100002.19;1714437;83;20101;-72
2022/07/18 08:52:38;;;;;;;;;;;;;;;22.51;51.60;99991.30;1714254;83;20420;-71
2022/07/18 08:55:07;;;;;;;;;;;;;;;22.71;47.77;99996.85;1714341;83;20538;-72
2022/07/18 08:57:34;;;;;;;;;;;;;;;22.86;48.73;99997.22;1714647;83;20142;-70
2022/07/18 09:00:03;;;;;;;;;;;;;;;23.19;49.71;99998.23;1714598;82;20117;-72
2022/07/18 09:02:29;;;;;;;;;;;;;;;23.32;48.86;99979.91;1685688;85;20474;-75
2022/07/18 09:04:56;;;;;;;;;;;;;;;23.43;48.03;99985.58;1696515;84;20186;-74
2022/07/18 09:07:24;;;;;;;;;;;;;;;23.14;47.79;99988.20;1712905;84;21080;-73
2022/07/18 09:09:56;;;;;;;;;;;;;;;22.74;50.17;99986.28;1714361;83;20153;-75
2022/07/18 09:12:22;;;;;;;;;;;;;;;22.39;49.92;99988.98;1696390;84;20143;-72
2022/07/18 09:14:49;;;;;;;;;;;;;;;22.25;51.22;99983.84;1712560;84;20150;-70
2022/07/18 09:17:23;;;;;;;;;;;;;;;22.36;51.26;99987.55;1713698;83;20165;-69
2022/07/18 09:20:14;;;;;;;;;;;;;;;22.63;50.51;99993.19;1686145;85;21775;-69
2022/07/18 09:22:45;;;;;;;;;;;;;;;22.90;49.58;99979.84;1701435;82;20100;-69
2022/07/18 09:25:13;;;;;;;;;;;;;;;23.30;48.47;99975.30;1676834;84;20179;-69
2022/07/18 09:27:44;;;;;;;;;;;;;;;23.57;46.21;99987.89;1711576;84;20448;-69
2022/07/18 09:30:25;;;;;;;;;;;;;;;23.69;46.75;99972.11;1710615;84;20429;-71
2022/07/18 09:33:08;;;;;;;;;;;;;;;23.87;46.93;99983.99;1710838;84;20130;-70
2022/07/18 09:35:45;;;;;;;;;;;;;;;23.95;47.17;99978.02;1710718;84;20074;-69
2022/07/18 09:38:17;;;;;;;;;;;;;;;24.28;44.14;99981.12;1711128;83;20141;-70
2022/07/18 09:40:46;;;;;;;;;;;;;;;24.44;44.28;99981.34;1706531;84;20145;-69
2022/07/18 09:43:14;;;;;;;;;;;;;;;24.44;43.20;99985.55;1720188;83;20107;-69
2022/07/18 09:45:47;;;;;;;;;;;;;;;24.47;46.10;99975.73;1733011;83;21742;-69
2022/07/18 09:48:18;;;;;;;;;;;;;;;24.83;44.74;99969.54;1732933;83;20476;-71
2022/07/18 09:50:53;;;;;;;;;;;;;;;24.80;43.05;99987.80;1733092;82;20119;-69
2022/07/18 09:53:24;;;;;;;;;;;;;;;24.77;43.45;99984.38;1732981;82;20177;-70
2022/07/18 09:55:53;;;;;;;;;;;;;;;24.83;43.37;99980.77;1733324;83;20122;-70
2022/07/18 09:58:24;;;;;;;;;;;;;;;24.95;39.76;99980.94;1732853;83;21156;-69
2022/07/18 10:00:51;;;;;;;;;;;;;;;24.84;41.40;99989.37;1732896;82;20130;-69
2022/07/18 10:03:19;;;;;;;;;;;;;;;24.89;41.32;99980.54;1733115;83;20095;-69
2022/07/18 10:05:46;;;;;;;;;;;;;;;24.96;40.78;99981.17;1732794;83;20138;-70
2022/07/18 10:08:15;;;;;;;;;;;;;;;25.08;40.07;99975.14;1733034;83;20119;-70
2022/07/18 10:10:42;;;;;;;;;;;;;;;24.98;40.01;99981.57;1732704;83;21162;-69
2022/07/18 10:13:10;;;;;;;;;;;;;;;24.65;41.18;99986.37;1732836;83;20118;-72
2022/07/18 10:15:39;;;;;;;;;;;;;;;24.62;41.55;99975.16;1733068;82;20162;-70
2022/07/18 10:18:07;;;;;;;;;;;;;;;24.70;40.39;99978.16;1733447;82;20421;-71
2022/07/18 10:20:38;;;;;;;;;;;;;;;24.69;42.53;99981.57;1732890;83;20189;-70
2022/07/18 10:23:21;;;;;;;;;;;;;;;24.59;42.99;99974.55;1733062;82;21747;-71
2022/07/18 10:26:13;;;;;;;;;;;;;;;24.54;42.98;99981.96;1732557;82;20437;-71
2022/07/18 10:28:59;;;;;;;;;;;;;;;24.24;42.85;99977.50;1732707;82;20087;-71
2022/07/18 10:31:28;;;;;;;;;;;;;;;23.68;43.76;99984.52;1732051;82;20199;-71
2022/07/18 10:34:11;;;;;;;;;;;;;;;23.42;44.32;99976.38;1732844;83;20158;-71
2022/07/18 10:36:40;;;;;;;;;;;;;;;23.49;46.69;99978.41;1733149;83;21148;-72
2022/07/18 10:39:20;;;;;;;;;;;;;;;23.57;44.43;99974.48;1732715;82;20157;-71
2022/07/18 10:41:54;;;;;;;;;;;;;;;23.73;43.90;99972.13;1732610;82;20131;-72
2022/07/18 10:44:30;;;;;;;;;;;;;;;23.99;43.23;99976.63;1732925;83;20123;-72
2022/07/18 10:47:09;;;;;;;;;;;;;;;24.07;42.43;99977.45;1733473;83;20115;-69
2022/07/18 10:49:51;;;;;;;;;;;;;;;23.84;42.58;99970.77;1732859;83;22724;-70
2022/07/18 10:52:36;;;;;;;;;;;;;;;23.69;43.36;99965.09;1733476;83;20125;-71
2022/07/18 10:55:06;;;;;;;;;;;;;;;23.85;44.22;99967.56;1733177;82;20126;-69
2022/07/18 10:57:35;;;;;;;;;;;;;;;23.90;43.19;99960.17;1733069;82;20122;-70
2022/07/18 11:00:08;;;;;;;;;;;;;;;23.74;44.09;99974.33;1732812;82;20075;-69
2022/07/18 11:02:40;;;;;;;;;;;;;;;23.51;44.40;99968.41;1733241;83;20478;-69
2022/07/18 11:05:29;;;;;;;;;;;;;;;23.42;44.69;99973.56;1730615;83;20157;-69
2022/07/18 11:08:05;;;;;;;;;;;;;;;23.77;44.46;99961.73;1716772;83;20478;-69
2022/07/18 11:10:50;;;;;;;;;;;;;;;24.18;42.51;99959.45;1703906;84;20097;-69
2022/07/18 11:13:27;;;;;;;;;;;;;;;24.35;42.83;99961.48;1703745;83;20084;-68
2022/07/18 11:16:22;;;;;;;;;;;;;;;24.31;42.71;99966.89;1703792;84;21273;-70
2022/07/18 11:18:53;;;;;;;;;;;;;;;24.37;42.47;99966.70;1702919;84;20121;-71
2022/07/18 11:21:34;;;;;;;;;;;;;;;24.38;42.38;99964.70;1704060;84;20121;-70
2022/07/18 11:24:09;;;;;;;;;;;;;;;24.18;41.75;99961.45;1703636;84;20121;-71
2022/07/18 11:26:35;;;;;;;;;;;;;;;23.99;43.26;99960.61;1703716;84;20097;-70
2022/07/18 11:29:05;;;;;;;;;;;;;;;23.89;43.69;99964.78;1703999;84;21153;-70
2022/07/18 11:31:32;;;;;;;;;;;;;;;23.83;44.49;99958.75;1703502;84;20101;-69
2022/07/18 11:34:01;;;;;;;;;;;;;;;24.08;43.82;99957.42;1703792;84;20479;-70
2022/07/18 11:36:30;;;;;;;;;;;;;;;24.25;43.97;99953.89;1703874;83;20411;-70
2022/07/18 11:38:59;;;;;;;;;;;;;;;24.23;43.33;99957.66;1703642;84;20185;-69
2022/07/18 11:41:25;;;;;;;;;;;;;;;24.10;42.33;99948.02;1704050;83;21171;-69
2022/07/18 11:43:53;;;;;;;;;;;;;;;23.93;41.61;99955.17;1703790;84;20129;-69
2022/07/18 11:46:22;;;;;;;;;;;;;;;23.61;42.87;99945.27;1703789;84;20196;-69
2022/07/18 11:49:02;;;;;;;;;;;;;;;23.36;45.03;99954.13;1703759;84;20101;-71
2022/07/18 11:51:36;;;;;;;;;;;;;;;23.19;45.96;99953.42;1703972;84;20448;-69
2022/07/18 11:54:02;;;;;;;;;;;;;;;22.96;47.23;99957.30;1704102;84;21174;-70
2022/07/18 11:56:30;;;;;;;;;;;;;;;22.76;47.41;99948.92;1714595;83;20445;-69
2022/07/18 11:58:57;;;;;;;;;;;;;;;22.67;49.50;99950.65;1733304;83;20138;-69
2022/07/18 12:01:32;;;;;;;;;;;;;;;22.66;48.67;99944.04;1733352;82;20118;-70
2022/07/18 12:03:59;;;;;;;;;;;;;;;22.71;47.94;99940.88;1730992;82;20144;-70
2022/07/18 12:06:27;;;;;;;;;;;;;;;22.83;48.98;99936.41;1702946;83;21249;-69
2022/07/18 12:09:05;;;;;;;;;;;;;;;22.96;48.97;99943.30;1731719;83;20096;-69
2022/07/18 12:11:35;;;;;;;;;;;;;;;22.99;48.97;99936.12;1731367;83;20096;-70
2022/07/18 12:14:04;;;;;;;;;;;;;;;23.00;48.13;99937.13;1731956;82;20435;-70
2022/07/18 12:16:42;;;;;;;;;;;;;;;22.97;47.78;99944.91;1703178;83;20141;-70
2022/07/18 12:19:12;;;;;;;;;;;;;;;22.90;48.22;99946.86;1731599;83;21085;-71
2022/07/18 12:21:51;;;;;;;;;;;;;;;22.81;47.99;99949.98;1731800;83;20484;-70
2022/07/18 12:24:27;;;;;;;;;;;;;;;22.76;47.22;99944.72;1731916;83;20100;-70
2022/07/18 12:27:20;;;;;;;;;;;;;;;22.96;48.33;99946.10;1731586;82;20085;-70
2022/07/18 12:29:59;;;;;;;;;;;;;;;23.37;46.90;99926.31;1730895;83;20416;-70
2022/07/18 12:32:27;;;;;;;;;;;;;;;23.41;43.84;99949.55;1731534;83;21207;-70
2022/07/18 12:35:03;;;;;;;;;;;;;;;23.22;46.21;99940.04;1731202;83;20156;-70
2022/07/18 12:37:31;;;;;;;;;;;;;;;23.24;46.16;99937.65;1731747;82;20439;-71
2022/07/18 12:40:03;;;;;;;;;;;;;;;23.47;43.00;99938.17;1731820;83;20167;-71
2022/07/18 12:42:35;;;;;;;;;;;;;;;23.62;44.39;99937.67;1719872;83;20086;-71
2022/07/18 12:45:04;;;;;;;;;;;;;;;23.91;44.14;99921.12;1717755;83;21095;-71
2022/07/18 12:47:30;;;;;;;;;;;;;;;24.27;43.98;99929.02;1717954;83;20125;-71
2022/07/18 12:49:57;;;;;;;;;;;;;;;24.61;43.16;99924.42;1707615;83;20142;-72